createdAt,value
2022-08-16T00:00:29.166Z,8.32
2022-08-16T00:01:10.898Z,8.18
2022-08-16T00:01:44.192Z,8.73
2022-08-16T00:02:17.044Z,8.43
2022-08-16T00:02:49.328Z,9.77
2022-08-16T00:03:21.515Z,8.27
2022-08-16T00:03:55.846Z,8.07
2022-08-16T00:04:28.971Z,8.68
2022-08-16T00:05:01.721Z,8.00
2022-08-16T00:05:34.995Z,8.50
2022-08-16T00:06:07.296Z,10.25
2022-08-16T00:06:39.702Z,8.88
2022-08-16T00:07:11.706Z,10.50
2022-08-16T00:07:44.502Z,8.63
2022-08-16T00:08:36.112Z,9.05
2022-08-16T00:09:10.753Z,9.57
2022-08-16T00:09:43.000Z,8.68
2022-08-16T00:10:20.676Z,9.68
2022-08-16T00:10:53.520Z,9.45
2022-08-16T00:11:25.600Z,8.43
2022-08-16T00:11:58.699Z,8.20
2022-08-16T00:12:31.114Z,9.13
2022-08-16T00:13:05.859Z,9.13
2022-08-16T00:13:41.650Z,9.98
2022-08-16T00:14:19.624Z,8.20
2022-08-16T00:14:51.812Z,7.90
2022-08-16T00:15:51.813Z,8.18
2022-08-16T00:17:00.987Z,7.82
2022-08-16T00:17:19.726Z,9.43
2022-08-16T00:17:57.065Z,6.78
2022-08-16T00:18:29.775Z,8.30
2022-08-16T00:19:04.676Z,8.35
2022-08-16T00:19:41.883Z,12.38
2022-08-16T00:20:14.455Z,10.38
2022-08-16T00:20:47.888Z,8.35
2022-08-16T00:21:22.834Z,8.27
2022-08-16T00:22:01.431Z,11.20
2022-08-16T00:22:33.881Z,9.63
2022-08-16T00:23:07.158Z,8.85
2022-08-16T00:23:46.467Z,9.98
2022-08-16T00:24:31.229Z,8.75
2022-08-16T00:25:06.942Z,7.75
2022-08-16T00:26:35.946Z,8.27
2022-08-16T00:26:36.370Z,9.73
2022-08-16T00:27:11.056Z,8.55
2022-08-16T00:27:43.398Z,9.15
2022-08-16T00:28:19.365Z,10.15
2022-08-16T00:28:54.731Z,11.02
2022-08-16T00:29:27.031Z,8.85
2022-08-16T00:30:19.102Z,9.13
2022-08-16T00:30:52.046Z,9.15
2022-08-16T00:31:25.688Z,8.85
2022-08-16T00:32:01.187Z,10.57
2022-08-16T00:32:38.859Z,11.65
2022-08-16T00:33:10.991Z,11.52
2022-08-16T00:33:50.360Z,11.90
2022-08-16T00:34:23.027Z,11.15
2022-08-16T00:35:16.824Z,11.27
2022-08-16T00:35:48.824Z,10.73
2022-08-16T00:36:21.823Z,9.50
2022-08-16T00:36:56.370Z,11.27
2022-08-16T00:37:56.980Z,9.82
2022-08-16T00:38:41.028Z,10.88
2022-08-16T00:39:15.741Z,9.63
2022-08-16T00:39:56.882Z,12.68
2022-08-16T00:40:36.951Z,9.13
2022-08-16T00:41:17.206Z,8.52
2022-08-16T00:41:49.783Z,10.35
2022-08-16T00:42:30.702Z,10.25
2022-08-16T00:43:12.103Z,10.13
2022-08-16T00:43:50.446Z,9.95
2022-08-16T00:44:22.626Z,8.90
2022-08-16T00:45:25.046Z,9.50
2022-08-16T00:46:00.938Z,10.15
2022-08-16T00:47:06.452Z,10.85
2022-08-16T00:47:42.558Z,9.18
2022-08-16T00:48:30.319Z,9.85
2022-08-16T00:49:05.367Z,10.40
2022-08-16T00:49:39.497Z,12.00
2022-08-16T00:50:19.026Z,9.85
2022-08-16T00:50:51.008Z,14.25
2022-08-16T00:51:29.467Z,9.63
2022-08-16T00:52:01.729Z,9.40
2022-08-16T00:52:33.713Z,10.45
2022-08-16T00:53:09.141Z,9.43
2022-08-16T00:53:42.841Z,9.35
2022-08-16T00:54:14.945Z,9.35
2022-08-16T00:54:53.681Z,8.93
2022-08-16T00:55:28.300Z,9.85
2022-08-16T00:56:11.586Z,10.10
2022-08-16T00:57:04.380Z,8.35
2022-08-16T00:57:59.242Z,9.40
2022-08-16T00:58:34.983Z,11.82
2022-08-16T00:59:08.601Z,11.40
2022-08-16T00:59:54.800Z,11.13
2022-08-16T01:00:32.281Z,9.40
2022-08-16T01:01:08.184Z,10.88
2022-08-16T01:01:41.360Z,10.60
2022-08-16T01:02:30.570Z,9.13
2022-08-16T01:03:05.957Z,8.60
2022-08-16T01:03:46.296Z,9.15
2022-08-16T01:04:30.318Z,10.43
2022-08-16T01:05:09.391Z,10.05
2022-08-16T01:05:44.111Z,12.05
2022-08-16T01:06:40.810Z,10.82
2022-08-16T01:07:12.448Z,11.10
2022-08-16T01:07:52.153Z,9.90
2022-08-16T01:08:35.471Z,9.65
2022-08-16T01:09:08.788Z,9.77
2022-08-16T01:09:42.994Z,9.18
2022-08-16T01:10:16.805Z,10.77
2022-08-16T01:10:49.323Z,10.52
2022-08-16T01:11:23.236Z,10.23
2022-08-16T01:11:56.234Z,9.38
2022-08-16T01:12:28.963Z,10.85
2022-08-16T01:13:05.288Z,10.35
2022-08-16T01:13:38.716Z,13.50
2022-08-16T01:14:20.070Z,12.18
2022-08-16T01:14:54.591Z,9.52
2022-08-16T01:15:27.715Z,11.70
2022-08-16T01:16:10.789Z,8.93
2022-08-16T01:16:44.095Z,9.75
2022-08-16T01:17:17.689Z,11.68
2022-08-16T01:17:56.157Z,9.45
2022-08-16T01:18:39.178Z,10.18
2022-08-16T01:19:19.486Z,9.35
2022-08-16T01:19:53.234Z,10.02
2022-08-16T01:20:33.975Z,10.90
2022-08-16T01:21:09.239Z,9.48
2022-08-16T01:21:49.050Z,12.15
2022-08-16T01:22:46.977Z,10.32
2022-08-16T01:23:24.611Z,9.55
2022-08-16T01:23:58.673Z,12.43
2022-08-16T01:24:52.889Z,11.68
2022-08-16T01:25:36.258Z,9.60
2022-08-16T01:26:33.641Z,9.98
2022-08-16T01:27:06.657Z,10.43
2022-08-16T01:27:41.580Z,10.65
2022-08-16T01:28:19.737Z,11.15
2022-08-16T01:28:53.390Z,11.52
2022-08-16T01:29:35.736Z,10.05
2022-08-16T01:30:26.218Z,9.18
2022-08-16T01:30:59.994Z,9.80
2022-08-16T01:31:32.800Z,9.68
2022-08-16T01:32:09.699Z,10.20
2022-08-16T01:32:45.078Z,8.60
2022-08-16T01:33:35.987Z,8.98
2022-08-16T01:34:09.100Z,8.85
2022-08-16T01:34:57.013Z,9.05
2022-08-16T01:35:38.628Z,8.75
2022-08-16T01:36:13.095Z,9.40
2022-08-16T01:36:47.299Z,10.25
2022-08-16T01:37:35.843Z,10.25
2022-08-16T01:38:20.269Z,10.77
2022-08-16T01:38:57.120Z,10.73
2022-08-16T01:39:35.136Z,12.40
2022-08-16T01:40:08.188Z,8.27
2022-08-16T01:40:40.272Z,11.15
2022-08-16T01:41:19.298Z,8.75
2022-08-16T01:41:52.623Z,9.50
2022-08-16T01:42:24.623Z,9.40
2022-08-16T01:42:57.762Z,9.05
2022-08-16T01:43:31.537Z,10.15
2022-08-16T01:44:04.393Z,8.85
2022-08-16T01:44:39.211Z,9.95
2022-08-16T01:45:11.861Z,9.55
2022-08-16T01:45:44.066Z,11.30
2022-08-16T01:46:39.449Z,9.32
2022-08-16T01:47:15.618Z,9.13
2022-08-16T01:47:50.957Z,9.00
2022-08-16T01:48:27.439Z,8.90
2022-08-16T01:49:05.328Z,10.38
2022-08-16T01:49:43.638Z,8.98
2022-08-16T01:50:42.108Z,10.35
2022-08-16T01:51:26.672Z,9.60
2022-08-16T01:52:00.679Z,8.70
2022-08-16T01:52:56.281Z,8.50
2022-08-16T01:53:55.237Z,9.55
2022-08-16T01:54:37.561Z,9.23
2022-08-16T01:55:10.103Z,9.50
2022-08-16T01:55:54.080Z,7.90
2022-08-16T01:56:27.279Z,9.82
2022-08-16T01:57:01.761Z,8.55
2022-08-16T01:57:35.572Z,8.48
2022-08-16T01:58:12.202Z,10.00
2022-08-16T01:58:48.076Z,9.30
2022-08-16T01:59:22.219Z,9.43
2022-08-16T01:59:54.991Z,11.05
2022-08-16T02:00:29.121Z,10.00
2022-08-16T02:01:03.271Z,8.70
2022-08-16T02:01:35.758Z,9.85
2022-08-16T02:02:27.427Z,10.02
2022-08-16T02:03:00.184Z,10.35
2022-08-16T02:03:32.936Z,8.35
2022-08-16T02:04:10.809Z,9.18
2022-08-16T02:04:49.725Z,9.93
2022-08-16T02:05:30.292Z,9.48
2022-08-16T02:06:03.447Z,8.80
2022-08-16T02:06:46.630Z,8.85
2022-08-16T02:07:23.527Z,8.55
2022-08-16T02:07:56.416Z,9.98
2022-08-16T02:08:33.798Z,8.77
2022-08-16T02:09:11.699Z,11.25
2022-08-16T02:09:58.774Z,12.05
2022-08-16T02:10:42.927Z,9.45
2022-08-16T02:11:18.313Z,9.77
2022-08-16T02:11:53.172Z,9.90
2022-08-16T02:12:49.482Z,9.27
2022-08-16T02:13:20.231Z,10.05
2022-08-16T02:14:00.248Z,8.95
2022-08-16T02:14:36.318Z,12.85
2022-08-16T02:15:08.989Z,10.02
2022-08-16T02:15:43.843Z,9.45
2022-08-16T02:16:18.388Z,9.30
2022-08-16T02:16:50.956Z,12.70
2022-08-16T02:17:24.223Z,9.55
2022-08-16T02:18:01.618Z,9.20
2022-08-16T02:18:34.382Z,10.57
2022-08-16T02:19:15.834Z,9.90
2022-08-16T02:19:58.923Z,9.27
2022-08-16T02:20:35.534Z,8.70
2022-08-16T02:21:12.298Z,12.32
2022-08-16T02:22:08.727Z,9.85
2022-08-16T02:22:45.624Z,10.70
2022-08-16T02:23:18.895Z,9.55
2022-08-16T02:23:50.951Z,11.73
2022-08-16T02:24:32.025Z,10.13
2022-08-16T02:25:14.612Z,10.48
2022-08-16T02:25:51.780Z,10.63
2022-08-16T02:26:26.455Z,10.48
2022-08-16T02:26:59.028Z,11.15
2022-08-16T02:27:31.785Z,13.77
2022-08-16T02:28:04.362Z,11.50
2022-08-16T02:28:37.852Z,14.57
2022-08-16T02:29:20.811Z,12.38
2022-08-16T02:29:53.149Z,14.75
2022-08-16T02:30:44.100Z,11.60
2022-08-16T02:31:17.521Z,13.55
2022-08-16T02:32:02.804Z,11.40
2022-08-16T02:33:02.565Z,12.55
2022-08-16T02:33:44.365Z,13.18
2022-08-16T02:34:34.871Z,13.75
2022-08-16T02:35:14.322Z,10.98
2022-08-16T02:35:54.001Z,10.93
2022-08-16T02:36:49.795Z,12.20
2022-08-16T02:37:24.115Z,12.07
2022-08-16T02:38:16.372Z,13.60
2022-08-16T02:38:48.484Z,11.40
2022-08-16T02:39:22.991Z,13.30
2022-08-16T02:39:55.786Z,13.35
2022-08-16T02:40:28.041Z,12.63
2022-08-16T02:41:02.314Z,14.52
2022-08-16T02:41:40.517Z,16.27
2022-08-16T02:42:13.241Z,11.57
2022-08-16T02:42:45.977Z,12.32
2022-08-16T02:43:26.772Z,14.15
2022-08-16T02:44:00.141Z,12.15
2022-08-16T02:44:33.264Z,11.32
2022-08-16T02:45:05.783Z,13.25
2022-08-16T02:45:39.710Z,12.77
2022-08-16T02:46:14.020Z,13.93
2022-08-16T02:46:50.762Z,13.60
2022-08-16T02:47:27.273Z,13.07
2022-08-16T02:48:01.162Z,12.35
2022-08-16T02:48:51.411Z,12.52
2022-08-16T02:49:58.305Z,12.13
2022-08-16T02:50:55.054Z,12.95
2022-08-16T02:51:11.286Z,13.15
2022-08-16T02:51:45.334Z,16.75
2022-08-16T02:52:29.123Z,14.15
2022-08-16T02:53:05.614Z,12.77
2022-08-16T02:53:39.255Z,14.07
2022-08-16T02:54:13.792Z,13.57
2022-08-16T02:54:55.211Z,12.13
2022-08-16T02:55:40.906Z,13.20
2022-08-16T02:56:16.087Z,14.75
2022-08-16T02:56:49.302Z,14.25
2022-08-16T02:57:23.228Z,12.27
2022-08-16T02:57:55.366Z,13.75
2022-08-16T02:58:27.939Z,12.75
2022-08-16T02:59:01.483Z,12.52
2022-08-16T02:59:39.757Z,15.75
2022-08-16T03:00:34.285Z,13.05
2022-08-16T03:01:12.611Z,12.98
2022-08-16T03:01:47.394Z,13.93
2022-08-16T03:02:32.132Z,12.75
2022-08-16T03:03:10.470Z,13.20
2022-08-16T03:04:39.406Z,16.17
2022-08-16T03:04:52.044Z,13.32
2022-08-16T03:05:26.450Z,12.85
2022-08-16T03:06:03.475Z,13.25
2022-08-16T03:06:57.725Z,14.07
2022-08-16T03:07:50.454Z,15.38
2022-08-16T03:08:52.174Z,12.70
2022-08-16T03:09:16.878Z,13.15
2022-08-16T03:10:00.749Z,13.98
2022-08-16T03:10:35.439Z,13.02
2022-08-16T03:11:16.477Z,13.45
2022-08-16T03:11:50.844Z,15.48
2022-08-16T03:12:30.461Z,12.38
2022-08-16T03:13:12.113Z,14.55
2022-08-16T03:13:47.620Z,12.85
2022-08-16T03:14:24.622Z,15.65
2022-08-16T03:15:00.527Z,13.27
2022-08-16T03:15:32.738Z,13.35
2022-08-16T03:16:06.232Z,15.10
2022-08-16T03:17:00.775Z,14.13
2022-08-16T03:17:53.099Z,15.23
2022-08-16T03:18:34.253Z,13.95
2022-08-16T03:19:12.512Z,14.07
2022-08-16T03:19:47.933Z,13.75
2022-08-16T03:20:32.450Z,12.95
2022-08-16T03:21:10.169Z,13.05
2022-08-16T03:21:46.543Z,13.77
2022-08-16T03:22:28.078Z,12.52
2022-08-16T03:23:03.262Z,14.18
2022-08-16T03:23:36.107Z,13.70
2022-08-16T03:24:28.376Z,12.77
2022-08-16T03:25:04.637Z,12.75
2022-08-16T03:25:43.932Z,13.57
2022-08-16T03:26:18.017Z,12.32
2022-08-16T03:26:50.963Z,16.20
2022-08-16T03:27:23.533Z,12.20
2022-08-16T03:27:55.673Z,12.35
2022-08-16T03:28:28.629Z,12.98
2022-08-16T03:29:03.049Z,12.93
2022-08-16T03:29:35.367Z,12.05
2022-08-16T03:30:16.098Z,13.43
2022-08-16T03:30:53.158Z,14.13
2022-08-16T03:31:34.677Z,13.32
2022-08-16T03:32:07.517Z,13.05
2022-08-16T03:32:39.829Z,14.68
2022-08-16T03:33:12.515Z,14.18
2022-08-16T03:33:52.273Z,13.13
2022-08-16T03:34:25.061Z,13.63
2022-08-16T03:34:57.284Z,12.68
2022-08-16T03:35:32.774Z,14.80
2022-08-16T03:36:29.725Z,13.25
2022-08-16T03:37:05.368Z,14.70
2022-08-16T03:38:01.494Z,13.40
2022-08-16T03:38:37.273Z,15.32
2022-08-16T03:39:15.124Z,15.55
2022-08-16T03:39:56.286Z,13.63
2022-08-16T03:40:33.079Z,13.68
2022-08-16T03:41:24.245Z,15.05
2022-08-16T03:42:00.735Z,14.77
2022-08-16T03:42:34.107Z,13.82
2022-08-16T03:43:51.646Z,14.48
2022-08-16T03:44:44.592Z,14.52
2022-08-16T03:45:16.227Z,14.88
2022-08-16T03:45:49.472Z,13.73
2022-08-16T03:46:44.857Z,17.25
2022-08-16T03:47:19.784Z,14.00
2022-08-16T03:47:58.540Z,17.77
2022-08-16T03:48:36.809Z,13.98
2022-08-16T03:49:18.110Z,15.85
2022-08-16T03:49:53.618Z,15.50
2022-08-16T03:50:27.136Z,15.63
2022-08-16T03:51:01.789Z,14.25
2022-08-16T03:51:42.470Z,17.98
2022-08-16T03:52:18.061Z,14.18
2022-08-16T03:52:53.895Z,13.60
2022-08-16T03:53:37.680Z,13.63
2022-08-16T03:54:12.264Z,14.38
2022-08-16T03:54:52.240Z,13.18
2022-08-16T03:55:31.372Z,13.90
2022-08-16T03:56:19.503Z,13.75
2022-08-16T03:56:57.834Z,14.77
2022-08-16T03:57:36.420Z,13.98
2022-08-16T03:58:13.787Z,14.05
2022-08-16T03:58:45.903Z,13.80
2022-08-16T03:59:20.627Z,13.38
2022-08-16T03:59:55.625Z,14.13
2022-08-16T04:00:35.936Z,15.15
2022-08-16T04:01:16.499Z,15.07
2022-08-16T04:01:49.486Z,13.23
2022-08-16T04:02:31.620Z,12.07
2022-08-16T04:03:08.621Z,13.85
2022-08-16T04:03:43.236Z,13.00
2022-08-16T04:04:25.165Z,13.38
2022-08-16T04:05:07.203Z,13.07
2022-08-16T04:05:43.955Z,15.13
2022-08-16T04:06:16.869Z,17.05
2022-08-16T04:06:49.954Z,14.20
2022-08-16T04:07:24.738Z,14.07
2022-08-16T04:07:57.595Z,13.10
2022-08-16T04:08:31.283Z,14.82
2022-08-16T04:09:06.817Z,13.50
2022-08-16T04:09:44.883Z,13.82
2022-08-16T04:10:37.211Z,14.70
2022-08-16T04:11:09.415Z,13.43
2022-08-16T04:11:42.298Z,15.35
2022-08-16T04:12:53.245Z,13.02
2022-08-16T04:13:20.354Z,15.70
2022-08-16T04:14:08.861Z,13.25
2022-08-16T04:14:51.254Z,14.75
2022-08-16T04:15:24.168Z,16.83
2022-08-16T04:16:21.916Z,13.40
2022-08-16T04:17:02.265Z,12.82
2022-08-16T04:17:42.293Z,12.70
2022-08-16T04:18:16.498Z,13.40
2022-08-16T04:18:49.484Z,13.50
2022-08-16T04:19:24.958Z,12.93
2022-08-16T04:20:23.191Z,13.77
2022-08-16T04:21:00.375Z,12.98
2022-08-16T04:21:46.187Z,12.55
2022-08-16T04:22:27.732Z,13.45
2022-08-16T04:23:03.946Z,14.10
2022-08-16T04:23:38.930Z,13.95
2022-08-16T04:24:10.958Z,13.85
2022-08-16T04:24:54.198Z,13.25
2022-08-16T04:25:28.896Z,12.52
2022-08-16T04:26:02.038Z,14.32
2022-08-16T04:26:36.916Z,12.63
2022-08-16T04:27:17.980Z,14.70
2022-08-16T04:27:54.358Z,14.35
2022-08-16T04:28:52.093Z,12.23
2022-08-16T04:29:24.542Z,13.52
2022-08-16T04:30:03.321Z,12.80
2022-08-16T04:30:40.088Z,11.88
2022-08-16T04:31:13.128Z,13.80
2022-08-16T04:31:56.615Z,12.13
2022-08-16T04:32:33.621Z,12.98
2022-08-16T04:33:08.364Z,13.65
2022-08-16T04:33:50.680Z,10.77
2022-08-16T04:34:26.841Z,11.45
2022-08-16T04:35:02.195Z,11.50
2022-08-16T04:35:38.677Z,10.65
2022-08-16T04:36:12.889Z,12.82
2022-08-16T04:36:52.596Z,11.18
2022-08-16T04:37:25.621Z,13.18
2022-08-16T04:38:20.599Z,12.35
2022-08-16T04:38:54.741Z,11.88
2022-08-16T04:39:44.950Z,12.13
2022-08-16T04:40:25.184Z,14.90
2022-08-16T04:40:58.556Z,15.27
2022-08-16T04:41:37.268Z,14.45
2022-08-16T04:42:12.459Z,13.07
2022-08-16T04:42:45.916Z,13.25
2022-08-16T04:43:19.458Z,13.52
2022-08-16T04:43:51.557Z,11.98
2022-08-16T04:44:32.600Z,12.35
2022-08-16T04:45:17.960Z,11.82
2022-08-16T04:46:19.777Z,12.65
2022-08-16T04:47:21.438Z,11.77
2022-08-16T04:47:56.048Z,15.05
2022-08-16T04:48:32.887Z,13.20
2022-08-16T04:49:11.046Z,11.95
2022-08-16T04:49:46.361Z,12.70
2022-08-16T04:50:23.879Z,11.57
2022-08-16T04:51:28.350Z,12.43
2022-08-16T04:52:32.735Z,10.85
2022-08-16T04:53:00.575Z,11.32
2022-08-16T04:53:35.629Z,12.07
2022-08-16T04:54:13.260Z,14.63
2022-08-16T04:54:51.792Z,13.88
2022-08-16T04:55:31.932Z,11.27
2022-08-16T04:56:11.654Z,12.25
2022-08-16T04:56:46.278Z,11.80
2022-08-16T04:57:18.642Z,11.63
2022-08-16T04:57:53.684Z,13.00
2022-08-16T04:58:45.325Z,11.90
2022-08-16T04:59:20.260Z,14.43
2022-08-16T04:59:54.395Z,13.02
2022-08-16T05:00:34.009Z,11.63
2022-08-16T05:01:13.053Z,13.80
2022-08-16T05:01:58.668Z,15.30
2022-08-16T05:02:41.487Z,10.90
2022-08-16T05:03:14.983Z,14.18
2022-08-16T05:04:00.669Z,10.85
2022-08-16T05:04:38.118Z,11.60
2022-08-16T05:05:17.023Z,13.20
2022-08-16T05:05:59.461Z,12.63
2022-08-16T05:06:45.490Z,11.65
2022-08-16T05:07:31.444Z,12.57
2022-08-16T05:08:29.006Z,10.80
2022-08-16T05:09:05.909Z,12.02
2022-08-16T05:09:38.551Z,12.10
2022-08-16T05:10:19.869Z,11.35
2022-08-16T05:11:00.079Z,14.50
2022-08-16T05:11:33.203Z,14.38
2022-08-16T05:12:11.110Z,14.07
2022-08-16T05:12:44.907Z,12.50
2022-08-16T05:13:19.081Z,12.65
2022-08-16T05:14:10.917Z,12.25
2022-08-16T05:15:01.778Z,11.05
2022-08-16T05:15:36.180Z,12.35
2022-08-16T05:16:21.467Z,11.43
2022-08-16T05:16:58.688Z,11.13
2022-08-16T05:17:31.893Z,12.18
2022-08-16T05:18:04.915Z,11.13
2022-08-16T05:18:43.008Z,13.82
2022-08-16T05:19:16.490Z,10.50
2022-08-16T05:20:35.270Z,12.65
2022-08-16T05:21:11.403Z,11.52
2022-08-16T05:21:47.882Z,12.48
2022-08-16T05:22:24.516Z,13.43
2022-08-16T05:23:01.461Z,9.88
2022-08-16T05:23:34.306Z,9.25
2022-08-16T05:24:09.070Z,12.23
2022-08-16T05:24:43.819Z,9.23
2022-08-16T05:25:16.597Z,9.75
2022-08-16T05:25:54.126Z,10.10
2022-08-16T05:26:27.986Z,10.50
2022-08-16T05:27:00.367Z,9.40
2022-08-16T05:27:43.803Z,11.25
2022-08-16T05:28:19.563Z,8.32
2022-08-16T05:28:58.729Z,12.13
2022-08-16T05:30:00.966Z,9.57
2022-08-16T05:30:34.915Z,9.15
2022-08-16T05:31:13.601Z,11.80
2022-08-16T05:31:48.339Z,11.15
2022-08-16T05:32:32.816Z,9.13
2022-08-16T05:33:16.718Z,8.60
2022-08-16T05:33:53.434Z,9.48
2022-08-16T05:34:29.420Z,8.43
2022-08-16T05:35:02.013Z,9.25
2022-08-16T05:35:34.457Z,7.95
2022-08-16T05:36:15.610Z,8.00
2022-08-16T05:36:57.445Z,7.80
2022-08-16T05:37:39.679Z,10.07
2022-08-16T05:38:32.866Z,8.68
2022-08-16T05:39:09.640Z,8.93
2022-08-16T05:39:43.051Z,9.75
2022-08-16T05:40:17.084Z,9.68
2022-08-16T05:40:59.672Z,8.85
2022-08-16T05:41:45.448Z,8.32
2022-08-16T05:42:19.748Z,8.40
2022-08-16T05:42:53.587Z,7.65
2022-08-16T05:43:28.751Z,7.43
2022-08-16T05:44:05.222Z,8.75
2022-08-16T05:44:44.243Z,8.18
2022-08-16T05:45:21.997Z,7.70
2022-08-16T05:45:59.042Z,7.47
2022-08-16T05:46:31.490Z,8.10
2022-08-16T05:47:15.288Z,7.18
2022-08-16T05:47:49.811Z,8.68
2022-08-16T05:48:33.182Z,9.13
2022-08-16T05:49:13.636Z,10.05
2022-08-16T05:49:50.498Z,9.38
2022-08-16T05:50:28.193Z,8.27
2022-08-16T05:51:06.244Z,9.57
2022-08-16T05:51:41.773Z,10.23
2022-08-16T05:52:17.303Z,8.77
2022-08-16T05:52:53.222Z,7.70
2022-08-16T05:53:26.933Z,7.50
2022-08-16T05:54:17.453Z,7.70
2022-08-16T05:55:01.172Z,7.75
2022-08-16T05:55:35.156Z,9.05
2022-08-16T05:56:19.397Z,9.00
2022-08-16T05:56:53.420Z,7.45
2022-08-16T05:57:25.645Z,7.40
2022-08-16T05:58:06.835Z,8.25
2022-08-16T05:58:39.014Z,7.65
2022-08-16T05:59:13.278Z,7.38
2022-08-16T05:59:50.379Z,6.57
2022-08-16T06:00:31.773Z,7.07
2022-08-16T06:01:04.208Z,8.65
2022-08-16T06:01:40.411Z,8.00
2022-08-16T06:02:14.394Z,7.85
2022-08-16T06:02:50.079Z,7.70
2022-08-16T06:03:42.180Z,7.28
2022-08-16T06:04:35.281Z,7.60
2022-08-16T06:05:11.210Z,7.82
2022-08-16T06:05:46.559Z,7.30
2022-08-16T06:06:28.866Z,6.78
2022-08-16T06:07:07.049Z,7.00
2022-08-16T06:07:41.936Z,6.95
2022-08-16T06:08:32.467Z,7.70
2022-08-16T06:09:15.404Z,6.97
2022-08-16T06:09:50.078Z,7.47
2022-08-16T06:10:32.389Z,7.32
2022-08-16T06:11:11.245Z,7.03
2022-08-16T06:11:46.270Z,7.85
2022-08-16T06:12:26.915Z,6.50
2022-08-16T06:13:01.062Z,8.52
2022-08-16T06:13:34.121Z,7.00
2022-08-16T06:14:06.926Z,6.28
2022-08-16T06:14:43.804Z,8.40
2022-08-16T06:15:19.721Z,7.93
2022-08-16T06:15:54.286Z,6.97
2022-08-16T06:16:27.034Z,8.85
2022-08-16T06:17:05.533Z,7.25
2022-08-16T06:17:42.305Z,6.72
2022-08-16T06:18:16.260Z,7.25
2022-08-16T06:18:50.533Z,6.20
2022-08-16T06:19:23.735Z,7.00
2022-08-16T06:20:06.175Z,7.38
2022-08-16T06:20:55.256Z,8.13
2022-08-16T06:21:28.826Z,7.07
2022-08-16T06:22:09.335Z,6.97
2022-08-16T06:22:58.834Z,6.95
2022-08-16T06:23:41.478Z,9.88
2022-08-16T06:24:52.746Z,6.30
2022-08-16T06:25:08.067Z,8.82
2022-08-16T06:25:41.856Z,6.63
2022-08-16T06:26:13.864Z,7.20
2022-08-16T06:26:58.011Z,6.53
2022-08-16T06:27:40.690Z,6.35
2022-08-16T06:28:17.106Z,6.97
2022-08-16T06:29:05.158Z,7.30
2022-08-16T06:29:44.453Z,7.43
2022-08-16T06:30:23.363Z,7.35
2022-08-16T06:31:01.365Z,7.32
2022-08-16T06:31:38.490Z,6.90
2022-08-16T06:32:27.121Z,7.68
2022-08-16T06:33:01.115Z,6.35
2022-08-16T06:33:34.749Z,6.53
2022-08-16T06:34:56.168Z,7.18
2022-08-16T06:35:07.473Z,6.65
2022-08-16T06:35:41.678Z,8.50
2022-08-16T06:36:15.171Z,6.55
2022-08-16T06:36:59.211Z,7.90
2022-08-16T06:37:37.123Z,6.28
2022-08-16T06:38:34.078Z,6.78
2022-08-16T06:39:06.047Z,6.35
2022-08-16T06:40:00.940Z,6.53
2022-08-16T06:40:38.643Z,6.00
2022-08-16T06:41:14.066Z,8.55
2022-08-16T06:41:47.884Z,6.90
2022-08-16T06:42:47.514Z,7.30
2022-08-16T06:43:56.598Z,6.80
2022-08-16T06:44:32.530Z,7.20
2022-08-16T06:45:09.576Z,6.28
2022-08-16T06:45:54.427Z,6.40
2022-08-16T06:46:34.312Z,7.28
2022-08-16T06:47:17.024Z,6.20
2022-08-16T06:47:53.288Z,7.28
2022-08-16T06:48:32.893Z,7.28
2022-08-16T06:49:11.012Z,6.68
2022-08-16T06:49:43.466Z,7.45
2022-08-16T06:50:28.904Z,6.70
2022-08-16T06:51:04.797Z,6.03
2022-08-16T06:51:45.157Z,9.18
2022-08-16T06:52:58.459Z,6.57
2022-08-16T06:53:35.712Z,6.75
2022-08-16T06:54:09.079Z,6.38
2022-08-16T06:54:46.436Z,6.43
2022-08-16T06:55:22.389Z,6.65
2022-08-16T06:55:59.920Z,9.13
2022-08-16T06:56:42.524Z,5.88
2022-08-16T06:57:20.059Z,6.72
2022-08-16T06:57:53.201Z,5.90
2022-08-16T06:58:31.788Z,7.43
2022-08-16T06:59:13.011Z,6.57
2022-08-16T06:59:58.572Z,6.38
2022-08-16T07:00:38.456Z,6.10
2022-08-16T07:01:19.119Z,6.70
2022-08-16T07:01:58.031Z,6.70
2022-08-16T07:02:34.001Z,6.38
2022-08-16T07:03:27.630Z,6.10
2022-08-16T07:04:01.061Z,6.28
2022-08-16T07:04:40.324Z,6.57
2022-08-16T07:05:27.368Z,5.90
2022-08-16T07:06:19.874Z,6.15
2022-08-16T07:06:54.271Z,6.95
2022-08-16T07:07:31.105Z,6.13
2022-08-16T07:08:06.565Z,6.38
2022-08-16T07:08:42.429Z,6.50
2022-08-16T07:09:15.989Z,6.55
2022-08-16T07:09:51.424Z,6.53
2022-08-16T07:10:25.806Z,5.93
2022-08-16T07:10:59.851Z,5.97
2022-08-16T07:11:47.271Z,6.90
2022-08-16T07:12:36.855Z,7.05
2022-08-16T07:13:43.754Z,6.38
2022-08-16T07:14:24.982Z,6.20
2022-08-16T07:15:00.764Z,5.82
2022-08-16T07:15:33.191Z,5.85
2022-08-16T07:16:06.573Z,6.82
2022-08-16T07:16:41.852Z,5.80
2022-08-16T07:17:15.634Z,6.32
2022-08-16T07:17:54.082Z,6.47
2022-08-16T07:18:26.457Z,6.18
2022-08-16T07:19:01.884Z,7.15
2022-08-16T07:20:02.727Z,5.93
2022-08-16T07:20:47.836Z,6.20
2022-08-16T07:21:21.013Z,5.82
2022-08-16T07:21:59.915Z,6.35
2022-08-16T07:22:39.042Z,5.93
2022-08-16T07:23:37.152Z,6.63
2022-08-16T07:24:13.223Z,7.55
2022-08-16T07:25:07.296Z,5.60
2022-08-16T07:25:40.195Z,5.45
2022-08-16T07:26:24.845Z,6.00
2022-08-16T07:27:00.781Z,6.15
2022-08-16T07:27:33.812Z,6.00
2022-08-16T07:28:20.774Z,5.65
2022-08-16T07:28:58.579Z,6.35
2022-08-16T07:29:31.611Z,5.60
2022-08-16T07:30:39.906Z,6.88
2022-08-16T07:31:01.970Z,5.47
2022-08-16T07:31:38.456Z,6.15
2022-08-16T07:32:15.623Z,7.50
2022-08-16T07:32:51.587Z,6.15
2022-08-16T07:33:52.028Z,5.90
2022-08-16T07:34:16.564Z,6.32
2022-08-16T07:34:50.099Z,5.65
2022-08-16T07:35:24.769Z,5.82
2022-08-16T07:35:58.127Z,5.45
2022-08-16T07:36:30.939Z,5.43
2022-08-16T07:37:09.735Z,7.07
2022-08-16T07:38:00.553Z,6.30
2022-08-16T07:38:39.553Z,6.00
2022-08-16T07:39:13.465Z,5.72
2022-08-16T07:39:46.206Z,6.10
2022-08-16T07:40:31.882Z,7.22
2022-08-16T07:41:12.417Z,6.22
2022-08-16T07:41:49.377Z,6.80
2022-08-16T07:42:28.685Z,5.88
2022-08-16T07:43:07.329Z,5.47
2022-08-16T07:43:41.534Z,5.07
2022-08-16T07:44:15.413Z,6.10
2022-08-16T07:44:50.700Z,6.40
2022-08-16T07:45:23.520Z,5.65
2022-08-16T07:45:59.476Z,5.25
2022-08-16T07:46:38.528Z,6.32
2022-08-16T07:47:38.171Z,6.35
2022-08-16T07:48:11.471Z,5.35
2022-08-16T07:48:47.659Z,6.18
2022-08-16T07:49:21.282Z,5.38
2022-08-16T07:49:58.300Z,6.22
2022-08-16T07:50:57.137Z,6.15
2022-08-16T07:51:24.065Z,5.75
2022-08-16T07:51:56.355Z,5.15
2022-08-16T07:52:32.766Z,5.90
2022-08-16T07:53:05.521Z,6.10
2022-08-16T07:53:43.301Z,5.22
2022-08-16T07:54:21.285Z,5.50
2022-08-16T07:55:05.741Z,5.22
2022-08-16T07:55:45.692Z,5.55
2022-08-16T07:56:21.679Z,5.68
2022-08-16T07:57:06.830Z,5.47
2022-08-16T07:58:00.668Z,5.57
2022-08-16T07:58:36.534Z,6.63
2022-08-16T07:59:19.763Z,6.22
2022-08-16T07:59:52.026Z,5.43
2022-08-16T08:00:25.230Z,5.97
2022-08-16T08:01:01.717Z,5.90
2022-08-16T08:01:34.724Z,5.03
2022-08-16T08:02:12.124Z,5.57
2022-08-16T08:02:45.630Z,5.32
2022-08-16T08:03:24.054Z,5.30
2022-08-16T08:04:13.941Z,5.60
2022-08-16T08:04:49.019Z,5.63
2022-08-16T08:05:35.249Z,5.35
2022-08-16T08:06:10.397Z,5.55
2022-08-16T08:06:44.105Z,5.30
2022-08-16T08:07:20.723Z,5.60
2022-08-16T08:07:55.191Z,5.93
2022-08-16T08:08:50.222Z,6.18
2022-08-16T08:09:22.092Z,5.70
2022-08-16T08:09:54.412Z,5.63
2022-08-16T08:10:29.404Z,5.35
2022-08-16T08:11:02.127Z,5.13
2022-08-16T08:11:41.768Z,5.65
2022-08-16T08:12:36.396Z,5.72
2022-08-16T08:13:12.743Z,5.63
2022-08-16T08:13:45.017Z,5.35
2022-08-16T08:14:29.410Z,5.40
2022-08-16T08:15:09.658Z,5.32
2022-08-16T08:15:52.607Z,5.93
2022-08-16T08:16:30.337Z,4.88
2022-08-16T08:17:05.265Z,5.38
2022-08-16T08:17:43.217Z,5.43
2022-08-16T08:18:29.361Z,5.70
2022-08-16T08:19:03.205Z,5.38
2022-08-16T08:19:40.444Z,5.40
2022-08-16T08:20:26.207Z,5.40
2022-08-16T08:21:00.450Z,5.60
2022-08-16T08:22:00.863Z,5.40
2022-08-16T08:22:38.404Z,5.65
2022-08-16T08:23:15.193Z,5.50
2022-08-16T08:23:53.770Z,5.30
2022-08-16T08:24:32.293Z,5.25
2022-08-16T08:25:06.376Z,5.32
2022-08-16T08:25:53.529Z,5.75
2022-08-16T08:26:28.692Z,5.30
2022-08-16T08:27:03.852Z,5.32
2022-08-16T08:27:37.224Z,5.70
2022-08-16T08:28:10.825Z,5.45
2022-08-16T08:28:44.585Z,5.32
2022-08-16T08:29:23.043Z,6.20
2022-08-16T08:30:49.238Z,5.63
2022-08-16T08:31:00.763Z,5.88
2022-08-16T08:31:39.295Z,5.07
2022-08-16T08:32:58.831Z,5.32